Time;durP1;ratioP1;P1;durP2;ratioP2;P2;SDS_P1;SDS_P2;PMS_P1;PMS_P2;Temp;Humidity;BMP_temperature;BMP_pressure;BME280_temperature;BME280_humidity;BME280_pressure;Samples;Min_cycle;Max_cycle;Signal;HPM_P1;HPM_P2
2021/07/24 00:01:27;;;;;;;13.27;8.57;;;;;;;;;;5070171;28;20387;-66
2021/07/24 00:03:53;;;;;;;17.02;8.63;;;;;;;;;;5070109;28;20383;-66
2021/07/24 00:06:19;;;;;;;13.63;8.00;;;;;;;;;;5071091;28;20382;-66
2021/07/24 00:08:45;;;;;;;14.48;8.93;;;;;;;;;;5071069;28;20029;-67
2021/07/24 00:11:11;;;;;;;13.32;8.52;;;;;;;;;;5071001;28;20021;-67
2021/07/24 00:13:38;;;;;;;17.45;8.98;;;;;;;;;;5071099;28;20070;-67
2021/07/24 00:16:04;;;;;;;18.15;9.00;;;;;;;;;;5070971;28;20025;-67
2021/07/24 00:18:31;;;;;;;15.52;8.13;;;;;;;;;;5070802;28;20475;-67
2021/07/24 00:20:57;;;;;;;14.63;8.55;;;;;;;;;;5070827;28;20512;-67
2021/07/24 00:23:23;;;;;;;13.32;8.30;;;;;;;;;;5071098;28;20046;-67
2021/07/24 00:25:49;;;;;;;15.52;8.70;;;;;;;;;;5071369;28;20081;-67
2021/07/24 00:28:15;;;;;;;13.57;8.27;;;;;;;;;;5071394;28;20024;-66
2021/07/24 00:30:42;;;;;;;19.17;8.35;;;;;;;;;;5071582;28;20032;-67
2021/07/24 00:33:09;;;;;;;14.25;8.00;;;;;;;;;;5071595;28;20391;-67
2021/07/24 00:35:35;;;;;;;12.90;8.38;;;;;;;;;;5070827;28;20024;-66
2021/07/24 00:38:02;;;;;;;17.42;8.27;;;;;;;;;;5070740;28;20020;-67
2021/07/24 00:40:29;;;;;;;11.68;8.32;;;;;;;;;;5071194;28;20024;-66
2021/07/24 00:42:57;;;;;;;10.95;7.72;;;;;;;;;;5070971;28;20094;-67
2021/07/24 00:45:23;;;;;;;13.15;8.18;;;;;;;;;;5071310;28;20381;-67
2021/07/24 00:47:51;;;;;;;12.82;7.65;;;;;;;;;;5070376;28;20057;-66
2021/07/24 00:50:17;;;;;;;13.32;8.05;;;;;;;;;;5069197;28;20020;-66
2021/07/24 00:52:44;;;;;;;15.25;8.35;;;;;;;;;;5070354;28;20483;-66
2021/07/24 00:55:11;;;;;;;12.75;8.40;;;;;;;;;;5069239;28;20025;-66
2021/07/24 00:57:40;;;;;;;17.17;8.88;;;;;;;;;;5071426;28;20032;-67
2021/07/24 01:00:07;;;;;;;15.82;8.63;;;;;;;;;;5071258;28;20017;-67
2021/07/24 01:02:33;;;;;;;14.48;8.85;;;;;;;;;;5071134;28;20028;-66
2021/07/24 01:05:01;;;;;;;12.13;8.52;;;;;;;;;;5070781;28;20036;-67
2021/07/24 01:07:27;;;;;;;16.05;8.13;;;;;;;;;;5070837;28;20029;-66
2021/07/24 01:09:53;;;;;;;13.88;9.20;;;;;;;;;;5091171;28;20116;-67
2021/07/24 01:12:19;;;;;;;17.33;9.13;;;;;;;;;;5091490;28;20027;-67
2021/07/24 01:14:45;;;;;;;16.27;8.38;;;;;;;;;;5091787;28;20028;-66
2021/07/24 01:17:11;;;;;;;16.10;9.10;;;;;;;;;;5091725;28;20069;-67
2021/07/24 01:19:37;;;;;;;15.02;8.85;;;;;;;;;;5091606;28;20105;-67
2021/07/24 01:22:04;;;;;;;12.70;8.27;;;;;;;;;;5091591;28;20020;-67
2021/07/24 01:24:30;;;;;;;15.18;8.65;;;;;;;;;;5088573;28;20036;-68
2021/07/24 01:26:56;;;;;;;13.43;8.55;;;;;;;;;;5071682;28;20025;-66
2021/07/24 01:29:22;;;;;;;16.15;9.05;;;;;;;;;;5071670;28;20113;-67
2021/07/24 01:31:49;;;;;;;15.48;8.77;;;;;;;;;;5071734;28;20020;-67
2021/07/24 01:34:15;;;;;;;17.63;8.25;;;;;;;;;;5071619;28;20028;-66
2021/07/24 01:36:41;;;;;;;14.52;8.23;;;;;;;;;;5071490;28;20025;-67
2021/07/24 01:39:08;;;;;;;11.95;7.25;;;;;;;;;;5070100;28;20066;-67
2021/07/24 01:41:34;;;;;;;12.13;8.35;;;;;;;;;;5071486;28;20056;-66
2021/07/24 01:44:00;;;;;;;13.10;8.55;;;;;;;;;;5071410;28;20017;-66
2021/07/24 01:46:26;;;;;;;13.98;8.23;;;;;;;;;;5071284;28;20025;-67
2021/07/24 01:54:22;;;;;;;17.63;8.68;;;;;;;;;;5070633;28;20151;-67
2021/07/24 01:56:49;;;;;;;14.82;8.80;;;;;;;;;;5074260;28;20025;-67
2021/07/24 01:59:16;;;;;;;12.95;8.07;;;;;;;;;;5074384;28;20025;-66
2021/07/24 02:01:42;;;;;;;13.93;7.78;;;;;;;;;;5074347;28;20037;-67
2021/07/24 02:04:16;;;;;;;18.65;9.35;;;;;;;;;;5074602;28;20024;-67
2021/07/24 02:06:42;;;;;;;14.98;8.32;;;;;;;;;;5074617;28;20538;-67
2021/07/24 02:09:09;;;;;;;12.93;7.78;;;;;;;;;;5074501;28;20032;-66
2021/07/24 02:11:35;;;;;;;11.35;7.88;;;;;;;;;;5074370;28;20091;-67
2021/07/24 02:14:01;;;;;;;13.82;7.75;;;;;;;;;;5074099;28;20274;-66
2021/07/24 02:16:27;;;;;;;13.43;7.40;;;;;;;;;;5074387;28;20047;-67
2021/07/24 02:18:55;;;;;;;16.77;8.60;;;;;;;;;;5074148;28;20044;-67
2021/07/24 02:21:21;;;;;;;13.32;8.27;;;;;;;;;;5074164;28;20077;-66
2021/07/24 02:23:47;;;;;;;14.02;8.55;;;;;;;;;;5074156;28;20052;-66
2021/07/24 02:26:13;;;;;;;18.35;10.57;;;;;;;;;;5073793;28;20090;-66
2021/07/24 02:28:39;;;;;;;16.98;7.15;;;;;;;;;;5073615;28;20036;-66
2021/07/24 02:31:05;;;;;;;15.15;6.57;;;;;;;;;;5073660;28;20028;-66
2021/07/24 02:33:32;;;;;;;14.93;7.65;;;;;;;;;;5073609;28;20369;-66
2021/07/24 02:35:59;;;;;;;11.93;6.88;;;;;;;;;;5073863;28;20016;-66
2021/07/24 02:38:25;;;;;;;10.85;6.97;;;;;;;;;;5073506;28;20147;-66
2021/07/24 02:40:51;;;;;;;12.95;7.57;;;;;;;;;;5073563;28;20028;-66
2021/07/24 02:43:17;;;;;;;10.63;7.07;;;;;;;;;;5073473;28;20013;-67
2021/07/24 02:45:43;;;;;;;10.55;6.82;;;;;;;;;;5073600;28;20429;-67
2021/07/24 02:48:09;;;;;;;12.40;7.93;;;;;;;;;;5073299;28;20051;-66
2021/07/24 02:50:35;;;;;;;11.43;7.38;;;;;;;;;;5073411;28;20017;-67
2021/07/24 02:53:01;;;;;;;13.77;7.57;;;;;;;;;;5073618;28;20036;-66
2021/07/24 02:55:27;;;;;;;14.68;6.57;;;;;;;;;;5073681;28;20028;-66
2021/07/24 02:57:53;;;;;;;12.15;6.40;;;;;;;;;;5073558;28;20078;-66
2021/07/24 03:00:19;;;;;;;11.65;6.07;;;;;;;;;;5073293;28;20021;-66
2021/07/24 03:02:45;;;;;;;10.85;6.35;;;;;;;;;;5073264;28;20028;-66
2021/07/24 03:05:11;;;;;;;10.77;6.60;;;;;;;;;;5072053;28;20020;-65
2021/07/24 03:07:37;;;;;;;10.90;6.10;;;;;;;;;;5073093;28;20029;-66
2021/07/24 03:10:03;;;;;;;11.40;6.47;;;;;;;;;;5072233;28;20031;-66
2021/07/24 03:12:30;;;;;;;9.50;5.78;;;;;;;;;;5073397;28;20070;-66
2021/07/24 03:14:56;;;;;;;11.05;6.55;;;;;;;;;;5073284;28;20041;-66
2021/07/24 03:17:23;;;;;;;10.00;5.88;;;;;;;;;;5073393;28;20040;-67
2021/07/24 03:19:49;;;;;;;10.30;5.57;;;;;;;;;;5072948;28;20468;-66
2021/07/24 03:22:16;;;;;;;11.95;6.78;;;;;;;;;;5072753;28;20494;-66
2021/07/24 03:24:42;;;;;;;22.98;6.90;;;;;;;;;;5072690;28;20028;-65
2021/07/24 03:27:08;;;;;;;17.23;6.32;;;;;;;;;;5072531;28;20052;-67
2021/07/24 03:29:34;;;;;;;9.77;5.90;;;;;;;;;;5072547;28;20058;-66
2021/07/24 03:32:00;;;;;;;10.15;5.47;;;;;;;;;;5071209;28;20016;-67
2021/07/24 03:34:26;;;;;;;8.98;5.72;;;;;;;;;;5072490;28;20096;-67
2021/07/24 03:36:52;;;;;;;10.63;6.15;;;;;;;;;;5072302;28;20024;-66
2021/07/24 03:39:18;;;;;;;9.82;5.68;;;;;;;;;;5072367;28;20525;-67
2021/07/24 03:41:44;;;;;;;8.93;5.78;;;;;;;;;;5070947;28;20395;-66
2021/07/24 03:44:10;;;;;;;10.05;6.65;;;;;;;;;;5072295;28;20012;-67
2021/07/24 03:46:36;;;;;;;9.85;6.28;;;;;;;;;;5072206;28;20067;-67
2021/07/24 03:49:02;;;;;;;10.82;6.35;;;;;;;;;;5072097;28;20052;-67
2021/07/24 03:51:28;;;;;;;8.70;5.97;;;;;;;;;;5071581;28;20021;-67
2021/07/24 03:53:54;;;;;;;7.95;5.20;;;;;;;;;;5070166;28;20032;-66
2021/07/24 03:56:21;;;;;;;11.15;6.03;;;;;;;;;;5071482;28;20028;-67
2021/07/24 03:58:50;;;;;;;9.13;5.72;;;;;;;;;;5070193;28;20710;-67
2021/07/24 04:01:16;;;;;;;8.40;5.38;;;;;;;;;;5070171;28;20495;-67
2021/07/24 04:03:42;;;;;;;9.93;5.68;;;;;;;;;;5071275;28;20043;-66
2021/07/24 04:06:19;;;;;;;10.07;6.18;;;;;;;;;;5069824;28;20025;-66
2021/07/24 04:08:45;;;;;;;9.35;5.68;;;;;;;;;;5070823;28;20434;-66
2021/07/24 04:11:11;;;;;;;9.40;6.18;;;;;;;;;;5071221;28;20043;-66
2021/07/24 04:13:37;;;;;;;10.05;6.40;;;;;;;;;;5071341;28;20032;-66
2021/07/24 04:16:05;;;;;;;15.23;6.45;;;;;;;;;;5071191;28;20020;-66
2021/07/24 04:18:33;;;;;;;8.95;5.70;;;;;;;;;;5069330;28;20028;-66
2021/07/24 04:20:59;;;;;;;8.38;5.70;;;;;;;;;;5070252;28;20029;-66
2021/07/24 04:23:28;;;;;;;9.38;6.15;;;;;;;;;;5071760;28;20029;-67
2021/07/24 04:25:54;;;;;;;10.50;5.82;;;;;;;;;;5070158;28;20013;-66
2021/07/24 04:28:20;;;;;;;10.15;5.63;;;;;;;;;;5071338;28;20090;-66
2021/07/24 04:30:47;;;;;;;9.70;5.38;;;;;;;;;;5071648;28;20020;-66
2021/07/24 04:33:13;;;;;;;9.27;6.30;;;;;;;;;;5071431;28;20479;-67
2021/07/24 04:35:44;;;;;;;9.32;5.70;;;;;;;;;;5071378;28;20463;-67
2021/07/24 04:38:10;;;;;;;9.35;5.53;;;;;;;;;;5070128;28;20052;-67
2021/07/24 04:40:38;;;;;;;8.35;6.25;;;;;;;;;;5071445;28;20029;-67
2021/07/24 04:43:04;;;;;;;8.95;5.22;;;;;;;;;;5071188;28;20618;-67
2021/07/24 04:45:30;;;;;;;8.88;5.57;;;;;;;;;;5071226;28;20028;-66
2021/07/24 04:47:56;;;;;;;9.00;6.13;;;;;;;;;;5070916;28;20094;-66
2021/07/24 04:50:22;;;;;;;9.52;5.85;;;;;;;;;;5071083;28;20027;-67
2021/07/24 04:52:49;;;;;;;13.88;6.60;;;;;;;;;;5071385;28;20028;-67
2021/07/24 04:55:15;;;;;;;10.48;5.53;;;;;;;;;;5071338;28;20024;-66
2021/07/24 04:57:42;;;;;;;9.00;5.80;;;;;;;;;;5071290;28;20475;-66
2021/07/24 05:00:08;;;;;;;8.75;5.82;;;;;;;;;;5071607;28;20029;-67
2021/07/24 05:02:35;;;;;;;9.50;5.40;;;;;;;;;;5071333;28;20024;-67
2021/07/24 05:05:01;;;;;;;10.82;6.32;;;;;;;;;;5071386;28;20017;-67
2021/07/24 05:07:29;;;;;;;12.55;5.70;;;;;;;;;;5071300;28;20096;-66
2021/07/24 05:09:55;;;;;;;8.50;5.55;;;;;;;;;;5071503;28;20021;-67
2021/07/24 05:12:21;;;;;;;8.95;6.15;;;;;;;;;;5071670;28;20016;-67
2021/07/24 05:14:47;;;;;;;10.80;5.82;;;;;;;;;;5071690;28;20056;-67
2021/07/24 05:17:14;;;;;;;11.40;5.72;;;;;;;;;;5071659;28;20017;-67
2021/07/24 05:19:44;;;;;;;8.73;5.30;;;;;;;;;;5071502;28;20024;-67
2021/07/24 05:22:11;;;;;;;8.88;5.88;;;;;;;;;;5071635;28;20021;-67
2021/07/24 05:24:38;;;;;;;9.15;5.85;;;;;;;;;;5071100;28;20541;-67
2021/07/24 05:27:04;;;;;;;8.73;5.68;;;;;;;;;;5071293;28;20407;-67
2021/07/24 05:29:31;;;;;;;8.55;5.63;;;;;;;;;;5071388;28;20064;-67
2021/07/24 05:31:58;;;;;;;11.25;5.55;;;;;;;;;;5075263;28;20027;-66
2021/07/24 05:34:24;;;;;;;8.82;5.63;;;;;;;;;;5075205;28;20206;-67
2021/07/24 05:36:52;;;;;;;10.85;5.78;;;;;;;;;;5074991;28;20376;-67
2021/07/24 05:39:18;;;;;;;9.13;5.57;;;;;;;;;;5075212;28;20013;-67
2021/07/24 05:41:44;;;;;;;9.70;5.68;;;;;;;;;;5075182;28;20055;-67
2021/07/24 05:44:12;;;;;;;9.48;6.20;;;;;;;;;;5075188;28;20119;-67
2021/07/24 05:46:38;;;;;;;8.25;5.18;;;;;;;;;;5074913;28;20051;-67
2021/07/24 05:49:04;;;;;;;8.55;5.65;;;;;;;;;;5074931;28;20418;-67
2021/07/24 05:51:30;;;;;;;11.45;5.38;;;;;;;;;;5074958;28;20078;-67
2021/07/24 05:53:56;;;;;;;8.18;5.45;;;;;;;;;;5073763;28;20032;-67
2021/07/24 05:56:22;;;;;;;7.60;4.75;;;;;;;;;;5074813;28;20032;-67
2021/07/24 05:58:48;;;;;;;10.07;5.40;;;;;;;;;;5074946;28;20021;-67
2021/07/24 06:01:15;;;;;;;8.02;5.45;;;;;;;;;;5074446;28;20028;-67
2021/07/24 06:03:41;;;;;;;9.40;5.70;;;;;;;;;;5074618;28;20012;-67
2021/07/24 06:06:07;;;;;;;10.00;5.75;;;;;;;;;;5074870;28;20087;-67
2021/07/24 06:08:33;;;;;;;9.15;5.28;;;;;;;;;;5074436;28;20054;-68
2021/07/24 06:11:03;;;;;;;9.85;5.50;;;;;;;;;;5074388;28;20028;-67
2021/07/24 06:13:30;;;;;;;10.23;5.88;;;;;;;;;;5073906;28;20028;-67
2021/07/24 06:15:56;;;;;;;10.52;5.88;;;;;;;;;;5074016;28;20021;-67
2021/07/24 06:18:22;;;;;;;8.07;5.13;;;;;;;;;;5072554;28;20055;-67
2021/07/24 06:20:49;;;;;;;10.32;6.15;;;;;;;;;;5074044;28;20043;-67
2021/07/24 06:23:15;;;;;;;7.93;5.15;;;;;;;;;;5073895;28;20021;-67
2021/07/24 06:25:42;;;;;;;9.45;5.78;;;;;;;;;;5073831;28;20016;-67
2021/07/24 06:28:08;;;;;;;8.40;5.78;;;;;;;;;;5073567;28;20103;-67
2021/07/24 06:30:35;;;;;;;7.72;4.80;;;;;;;;;;5073871;28;20056;-67
2021/07/24 06:33:01;;;;;;;8.70;5.65;;;;;;;;;;5073693;28;20023;-67
2021/07/24 06:35:27;;;;;;;9.82;6.38;;;;;;;;;;5073849;28;20028;-67
2021/07/24 06:37:53;;;;;;;8.88;5.72;;;;;;;;;;5072430;28;20119;-67
2021/07/24 06:40:19;;;;;;;10.38;5.00;;;;;;;;;;5072265;28;20066;-66
2021/07/24 06:42:45;;;;;;;10.63;5.50;;;;;;;;;;5073076;28;20112;-67
2021/07/24 06:45:12;;;;;;;9.45;5.90;;;;;;;;;;5073525;28;20064;-67
2021/07/24 06:47:38;;;;;;;9.60;6.47;;;;;;;;;;5073228;28;20035;-67
2021/07/24 06:50:04;;;;;;;9.73;5.78;;;;;;;;;;5073437;28;20570;-67
2021/07/24 06:52:30;;;;;;;10.27;5.80;;;;;;;;;;5073391;28;20028;-67
2021/07/24 06:54:56;;;;;;;7.07;4.97;;;;;;;;;;5073318;28;20035;-67
2021/07/24 06:57:22;;;;;;;7.72;5.47;;;;;;;;;;5071591;28;20021;-67
2021/07/24 06:59:48;;;;;;;8.82;5.55;;;;;;;;;;5073139;28;20021;-67
2021/07/24 07:02:14;;;;;;;8.32;5.68;;;;;;;;;;5071877;28;20044;-67
2021/07/24 07:04:40;;;;;;;10.07;6.10;;;;;;;;;;5072958;28;20093;-67
2021/07/24 07:07:07;;;;;;;8.93;5.70;;;;;;;;;;5072974;28;20024;-67
2021/07/24 07:09:33;;;;;;;9.05;5.60;;;;;;;;;;5072932;28;20040;-67
2021/07/24 07:11:59;;;;;;;9.52;5.95;;;;;;;;;;5073031;28;20047;-67
2021/07/24 07:14:26;;;;;;;11.45;5.88;;;;;;;;;;5072905;28;20039;-67
2021/07/24 07:16:52;;;;;;;10.60;5.25;;;;;;;;;;5072633;28;20027;-66
2021/07/24 07:19:18;;;;;;;9.57;5.63;;;;;;;;;;5072679;28;20031;-67
2021/07/24 07:21:45;;;;;;;8.10;4.85;;;;;;;;;;5072818;28;20028;-68
2021/07/24 07:24:11;;;;;;;10.20;5.35;;;;;;;;;;5072882;28;20103;-67
2021/07/24 07:26:37;;;;;;;9.32;5.00;;;;;;;;;;5072413;28;20027;-67
2021/07/24 07:29:04;;;;;;;7.95;4.45;;;;;;;;;;5072713;28;20055;-67
2021/07/24 07:31:34;;;;;;;8.85;5.35;;;;;;;;;;5072658;28;20074;-68
2021/07/24 07:34:01;;;;;;;7.10;4.80;;;;;;;;;;5072537;28;20026;-67
2021/07/24 07:36:27;;;;;;;9.25;5.35;;;;;;;;;;5072341;28;20020;-67
2021/07/24 07:38:53;;;;;;;9.95;5.80;;;;;;;;;;5072306;28;20028;-67
2021/07/24 07:41:19;;;;;;;8.52;5.32;;;;;;;;;;5072207;28;20603;-67
2021/07/24 07:43:46;;;;;;;8.38;5.18;;;;;;;;;;5072358;28;20021;-67
2021/07/24 07:46:12;;;;;;;8.48;5.25;;;;;;;;;;5072434;28;20092;-67
2021/07/24 07:48:39;;;;;;;8.65;5.35;;;;;;;;;;5070608;28;20052;-68
2021/07/24 07:51:05;;;;;;;6.72;4.32;;;;;;;;;;5071524;28;20031;-67
2021/07/24 07:53:31;;;;;;;10.75;5.43;;;;;;;;;;5069272;28;20056;-67
2021/07/24 07:55:57;;;;;;;9.20;4.63;;;;;;;;;;5069730;28;20024;-67
2021/07/24 07:58:24;;;;;;;9.02;4.78;;;;;;;;;;5070967;28;20040;-67
2021/07/24 08:00:50;;;;;;;10.05;5.60;;;;;;;;;;5070186;28;20490;-67
2021/07/24 08:03:17;;;;;;;7.60;4.75;;;;;;;;;;5071398;28;20483;-68
2021/07/24 08:05:43;;;;;;;7.43;4.90;;;;;;;;;;5071216;28;20096;-67
2021/07/24 08:08:09;;;;;;;9.00;5.93;;;;;;;;;;5071119;28;20029;-67
2021/07/24 08:10:35;;;;;;;9.27;5.13;;;;;;;;;;5071111;28;20078;-67
2021/07/24 08:13:14;;;;;;;8.15;4.82;;;;;;;;;;5071622;28;20024;-67
2021/07/24 08:15:40;;;;;;;7.55;4.65;;;;;;;;;;5071627;28;20023;-67
2021/07/24 08:18:06;;;;;;;7.63;4.90;;;;;;;;;;5070337;28;20028;-67
2021/07/24 08:20:33;;;;;;;8.07;5.15;;;;;;;;;;5070749;28;20461;-66
2021/07/24 08:22:59;;;;;;;7.50;4.97;;;;;;;;;;5071869;28;20039;-67
2021/07/24 08:25:25;;;;;;;10.45;4.97;;;;;;;;;;5071492;28;20096;-67
2021/07/24 08:27:53;;;;;;;9.50;5.05;;;;;;;;;;5070254;28;20032;-68
2021/07/24 08:30:19;;;;;;;8.15;4.70;;;;;;;;;;5071517;28;20025;-67
2021/07/24 08:32:45;;;;;;;9.60;4.88;;;;;;;;;;5071633;28;20103;-67
2021/07/24 08:35:11;;;;;;;8.27;5.13;;;;;;;;;;5071545;28;20035;-67
2021/07/24 08:37:37;;;;;;;7.57;4.80;;;;;;;;;;5071567;28;20093;-67
2021/07/24 08:40:04;;;;;;;9.98;5.00;;;;;;;;;;5071556;28;20089;-68
2021/07/24 08:42:39;;;;;;;7.88;5.10;;;;;;;;;;5071450;28;20017;-68
2021/07/24 08:45:06;;;;;;;9.23;5.15;;;;;;;;;;5071445;28;20483;-67
2021/07/24 08:47:32;;;;;;;7.80;5.03;;;;;;;;;;5071130;28;20024;-68
2021/07/24 08:49:59;;;;;;;13.13;5.60;;;;;;;;;;5071260;28;20078;-67
2021/07/24 08:52:29;;;;;;;8.13;4.78;;;;;;;;;;5071265;28;20597;-68
2021/07/24 08:54:55;;;;;;;8.15;4.68;;;;;;;;;;5070066;28;20068;-67
2021/07/24 08:57:25;;;;;;;10.80;5.47;;;;;;;;;;5071356;28;20100;-67
2021/07/24 08:59:52;;;;;;;8.65;5.30;;;;;;;;;;5071526;28;20028;-67
2021/07/24 09:02:26;;;;;;;9.20;5.82;;;;;;;;;;5071537;28;20025;-67
2021/07/24 09:04:54;;;;;;;8.95;5.13;;;;;;;;;;5073681;28;20498;-67
2021/07/24 09:07:21;;;;;;;9.32;5.45;;;;;;;;;;5073924;28;20074;-67
2021/07/24 09:09:49;;;;;;;7.75;4.57;;;;;;;;;;5075162;28;20081;-68
2021/07/24 09:12:15;;;;;;;7.68;4.85;;;;;;;;;;5075446;28;20019;-67
2021/07/24 09:14:41;;;;;;;9.75;5.50;;;;;;;;;;5074013;28;20032;-67
2021/07/24 09:17:10;;;;;;;8.07;4.72;;;;;;;;;;5075246;28;20097;-67
2021/07/24 09:19:36;;;;;;;7.22;4.88;;;;;;;;;;5073832;28;20021;-67
2021/07/24 09:22:03;;;;;;;9.93;5.65;;;;;;;;;;5073867;28;20024;-66
2021/07/24 09:24:29;;;;;;;7.78;4.38;;;;;;;;;;5074826;28;20020;-67
2021/07/24 09:26:55;;;;;;;10.40;5.47;;;;;;;;;;5075141;28;20052;-67
2021/07/24 09:29:22;;;;;;;9.65;5.57;;;;;;;;;;5074853;28;20077;-67
2021/07/24 09:31:48;;;;;;;9.07;4.72;;;;;;;;;;5074895;28;20353;-67
2021/07/24 09:34:15;;;;;;;9.88;5.70;;;;;;;;;;5075031;28;20021;-68
2021/07/24 09:36:42;;;;;;;9.20;5.65;;;;;;;;;;5075202;28;20518;-68
2021/07/24 09:39:09;;;;;;;9.00;4.72;;;;;;;;;;5075029;28;20028;-67
2021/07/24 09:41:35;;;;;;;11.45;5.80;;;;;;;;;;5074815;28;20675;-67
2021/07/24 09:44:01;;;;;;;9.68;4.85;;;;;;;;;;5074881;28;20020;-67
2021/07/24 09:46:27;;;;;;;10.25;5.68;;;;;;;;;;5075010;28;20059;-67
2021/07/24 09:48:54;;;;;;;8.23;5.80;;;;;;;;;;5094240;28;20044;-66
2021/07/24 09:51:45;;;;;;;10.77;5.95;;;;;;;;;;5095526;28;20024;-66
2021/07/24 09:54:25;;;;;;;9.57;5.72;;;;;;;;;;5085673;28;20126;-67
2021/07/24 09:56:51;;;;;;;11.68;5.68;;;;;;;;;;5094690;28;20103;-68
2021/07/24 09:59:18;;;;;;;8.35;5.43;;;;;;;;;;5093300;28;20107;-67
2021/07/24 10:01:51;;;;;;;10.52;5.70;;;;;;;;;;5094458;28;20042;-67
2021/07/24 10:04:22;;;;;;;9.63;6.10;;;;;;;;;;5094584;28;20020;-67
2021/07/24 10:06:52;;;;;;;9.70;5.63;;;;;;;;;;5093996;28;20020;-67
2021/07/24 10:09:18;;;;;;;8.80;5.15;;;;;;;;;;5094605;28;20112;-68
2021/07/24 10:11:44;;;;;;;9.55;5.20;;;;;;;;;;5095121;28;20059;-67
2021/07/24 10:14:11;;;;;;;10.20;5.85;;;;;;;;;;5094609;28;20020;-68
2021/07/24 10:16:37;;;;;;;8.68;5.50;;;;;;;;;;5092513;28;20024;-67
2021/07/24 10:19:04;;;;;;;10.52;5.13;;;;;;;;;;5094563;28;20028;-68
2021/07/24 10:21:30;;;;;;;11.25;6.38;;;;;;;;;;5094576;28;20047;-67
2021/07/24 10:23:57;;;;;;;12.43;5.40;;;;;;;;;;5094764;28;20077;-67
2021/07/24 10:26:25;;;;;;;9.27;5.75;;;;;;;;;;5077036;28;20098;-67
2021/07/24 10:28:53;;;;;;;8.95;5.38;;;;;;;;;;5074277;28;20037;-69
2021/07/24 10:31:46;;;;;;;11.68;5.57;;;;;;;;;;5074386;28;20494;-68
2021/07/24 10:34:13;;;;;;;12.18;4.70;;;;;;;;;;5065986;28;20115;-67
2021/07/24 10:36:41;;;;;;;9.15;6.18;;;;;;;;;;5092588;28;20024;-67
2021/07/24 10:39:16;;;;;;;9.35;5.97;;;;;;;;;;5093675;28;20020;-67
2021/07/24 10:41:43;;;;;;;9.02;5.97;;;;;;;;;;5092924;28;20028;-68
2021/07/24 10:44:16;;;;;;;10.50;5.85;;;;;;;;;;5094050;28;20035;-67
2021/07/24 10:46:45;;;;;;;8.65;5.35;;;;;;;;;;5094079;28;20381;-68
2021/07/24 10:49:23;;;;;;;10.40;6.35;;;;;;;;;;5092309;28;20067;-67
2021/07/24 10:51:59;;;;;;;15.43;5.88;;;;;;;;;;5094325;28;20020;-67
2021/07/24 10:54:26;;;;;;;16.88;5.75;;;;;;;;;;5092803;28;20142;-67
2021/07/24 10:56:52;;;;;;;11.25;5.28;;;;;;;;;;5093903;28;20028;-67
2021/07/24 10:59:22;;;;;;;9.93;5.78;;;;;;;;;;5092379;28;20411;-67
2021/07/24 11:01:49;;;;;;;10.43;5.35;;;;;;;;;;5093749;28;20378;-67
2021/07/24 11:04:34;;;;;;;8.30;5.22;;;;;;;;;;5092567;28;20031;-67
2021/07/24 11:07:20;;;;;;;7.65;5.30;;;;;;;;;;5093910;28;20032;-67
2021/07/24 11:09:47;;;;;;;11.77;5.60;;;;;;;;;;5093739;28;20120;-67
2021/07/24 11:12:14;;;;;;;7.90;5.07;;;;;;;;;;5093951;28;20077;-68
2021/07/24 11:14:42;;;;;;;12.68;5.38;;;;;;;;;;5093439;28;20024;-68
2021/07/24 11:17:08;;;;;;;8.75;5.40;;;;;;;;;;5092866;28;20016;-68
2021/07/24 11:19:45;;;;;;;7.03;4.75;;;;;;;;;;5093142;28;20016;-68
2021/07/24 11:22:17;;;;;;;8.90;5.10;;;;;;;;;;5093247;28;20028;-66
2021/07/24 11:24:43;;;;;;;8.95;5.07;;;;;;;;;;5088527;28;20024;-67
2021/07/24 11:27:09;;;;;;;9.02;4.80;;;;;;;;;;5072817;28;20582;-67
2021/07/24 11:29:38;;;;;;;9.38;5.10;;;;;;;;;;5072603;28;20047;-66
2021/07/24 11:32:04;;;;;;;10.75;5.10;;;;;;;;;;5071811;28;20025;-67
2021/07/24 11:34:31;;;;;;;9.48;5.60;;;;;;;;;;5071350;28;20037;-68
2021/07/24 11:36:58;;;;;;;10.10;5.32;;;;;;;;;;5071452;28;20093;-68
2021/07/24 11:39:25;;;;;;;7.95;4.95;;;;;;;;;;5072820;28;20025;-67
2021/07/24 11:41:51;;;;;;;10.00;5.72;;;;;;;;;;5089870;28;20027;-67
2021/07/24 11:44:24;;;;;;;12.98;5.32;;;;;;;;;;5093420;28;20099;-66
2021/07/24 11:46:57;;;;;;;11.45;5.68;;;;;;;;;;5093150;28;20047;-67
2021/07/24 11:49:23;;;;;;;;;;;;;;;;;;5092092;28;20075;-66
2021/07/24 11:51:49;;;;;;;8.63;4.95;;;;;;;;;;5091348;28;19908;-67
2021/07/24 11:54:15;;;;;;;11.18;5.40;;;;;;;;;;5092537;28;20501;-67
2021/07/24 11:56:41;;;;;;;8.27;5.47;;;;;;;;;;5092763;28;20489;-66
2021/07/24 11:59:07;;;;;;;10.02;5.20;;;;;;;;;;5092932;28;20020;-67
2021/07/24 12:01:33;;;;;;;8.93;5.68;;;;;;;;;;5092610;28;20052;-67
2021/07/24 12:04:03;;;;;;;9.52;5.30;;;;;;;;;;5092764;28;20020;-68
2021/07/24 12:06:29;;;;;;;9.68;5.25;;;;;;;;;;5092433;28;20131;-67
2021/07/24 12:08:55;;;;;;;9.88;5.65;;;;;;;;;;5092473;28;20457;-66
2021/07/24 12:11:22;;;;;;;9.50;5.28;;;;;;;;;;5092572;28;20024;-67
2021/07/24 12:13:48;;;;;;;9.13;5.00;;;;;;;;;;5091396;28;20024;-67
2021/07/24 12:16:14;;;;;;;10.25;5.68;;;;;;;;;;5091165;28;20020;-67
2021/07/24 12:18:53;;;;;;;8.25;5.00;;;;;;;;;;5091463;28;20019;-67
2021/07/24 12:21:20;;;;;;;7.32;4.68;;;;;;;;;;5088732;28;20356;-67
2021/07/24 12:23:55;;;;;;;8.25;4.53;;;;;;;;;;5091221;28;20066;-67
2021/07/24 12:26:22;;;;;;;7.65;5.95;;;;;;;;;;5075265;28;20020;-68
2021/07/24 12:28:48;;;;;;;9.55;4.78;;;;;;;;;;5070660;28;20037;-67
2021/07/24 12:31:17;;;;;;;11.73;5.53;;;;;;;;;;5086276;28;20062;-68
2021/07/24 12:33:56;;;;;;;27.38;5.68;;;;;;;;;;5089260;28;20413;-66
2021/07/24 12:36:23;;;;;;;11.57;5.07;;;;;;;;;;5099545;27;20403;-67
2021/07/24 12:38:50;;;;;;;12.65;6.07;;;;;;;;;;5095016;28;20068;-67
2021/07/24 12:41:16;;;;;;;9.30;5.82;;;;;;;;;;5073250;28;20024;-67
2021/07/24 12:44:00;;;;;;;10.60;5.68;;;;;;;;;;5091776;28;20020;-68
2021/07/24 12:46:27;;;;;;;8.88;4.88;;;;;;;;;;5090402;28;20023;-67
2021/07/24 12:48:54;;;;;;;8.30;5.03;;;;;;;;;;5091277;28;20112;-68
2021/07/24 12:51:25;;;;;;;14.05;5.55;;;;;;;;;;5085096;28;20051;-73
2021/07/24 12:54:06;;;;;;;9.60;5.22;;;;;;;;;;5071993;28;20108;-68
2021/07/24 12:56:32;;;;;;;9.45;5.22;;;;;;;;;;5071955;28;20025;-68
2021/07/24 12:59:01;;;;;;;8.10;4.65;;;;;;;;;;5072068;28;20044;-68
2021/07/24 13:01:27;;;;;;;10.90;4.85;;;;;;;;;;5073084;28;20103;-67
2021/07/24 13:03:54;;;;;;;11.38;5.40;;;;;;;;;;5078191;28;20387;-68
2021/07/24 13:06:20;;;;;;;9.68;4.82;;;;;;;;;;5090526;28;20028;-68
2021/07/24 13:08:46;;;;;;;7.90;4.95;;;;;;;;;;5078088;28;20040;-68
2021/07/24 13:11:12;;;;;;;11.27;5.38;;;;;;;;;;5071294;28;20096;-68
2021/07/24 13:13:40;;;;;;;6.93;4.53;;;;;;;;;;5080647;28;20019;-68
2021/07/24 13:16:06;;;;;;;13.60;5.40;;;;;;;;;;5086825;28;20740;-67
2021/07/24 13:18:33;;;;;;;17.73;6.05;;;;;;;;;;5075493;28;20035;-68
2021/07/24 13:20:59;;;;;;;22.48;6.72;;;;;;;;;;5077401;28;20029;-68
2021/07/24 13:23:25;;;;;;;11.77;5.35;;;;;;;;;;5080026;28;20106;-68
2021/07/24 13:28:17;;;;;;;8.32;4.57;;;;;;;;;;5080607;28;20081;-67
2021/07/24 13:30:51;;;;;;;10.52;5.22;;;;;;;;;;5080734;28;20064;-67
2021/07/24 13:33:18;;;;;;;8.82;5.20;;;;;;;;;;5081027;28;20024;-67
2021/07/24 13:35:45;;;;;;;8.82;5.03;;;;;;;;;;5078118;28;20066;-67
2021/07/24 13:38:11;;;;;;;11.52;5.40;;;;;;;;;;5077640;28;20044;-68
2021/07/24 13:40:37;;;;;;;8.68;5.05;;;;;;;;;;5076343;28;20024;-68
2021/07/24 13:43:04;;;;;;;8.90;4.97;;;;;;;;;;5081789;28;20035;-68
2021/07/24 13:45:31;;;;;;;9.13;5.38;;;;;;;;;;5074746;28;20045;-68
2021/07/24 13:48:00;;;;;;;9.73;5.47;;;;;;;;;;5074888;28;22011;-68
2021/07/24 13:50:26;;;;;;;7.07;4.60;;;;;;;;;;5074056;28;20021;-68
2021/07/24 13:52:53;;;;;;;8.05;5.07;;;;;;;;;;5083773;28;20020;-67
2021/07/24 13:55:19;;;;;;;10.95;5.20;;;;;;;;;;5085100;28;20031;-67
2021/07/24 13:57:45;;;;;;;10.43;4.93;;;;;;;;;;5081274;28;20560;-68
2021/07/24 14:00:12;;;;;;;6.57;4.38;;;;;;;;;;5083435;28;20099;-68
2021/07/24 14:02:38;;;;;;;7.93;4.57;;;;;;;;;;5081610;28;20020;-68
2021/07/24 14:05:05;;;;;;;7.72;4.90;;;;;;;;;;5081309;28;20028;-67
2021/07/24 14:07:33;;;;;;;7.00;4.50;;;;;;;;;;5080742;28;20016;-68
2021/07/24 14:10:01;;;;;;;7.90;5.03;;;;;;;;;;5079367;28;20040;-68
2021/07/24 14:12:27;;;;;;;10.07;5.55;;;;;;;;;;5084645;28;20027;-67
2021/07/24 14:14:56;;;;;;;6.22;4.47;;;;;;;;;;5080493;28;20511;-68
2021/07/24 14:17:22;;;;;;;7.05;4.63;;;;;;;;;;5082704;28;20040;-68
2021/07/24 14:19:48;;;;;;;6.43;4.45;;;;;;;;;;5085146;28;20036;-68
2021/07/24 14:22:14;;;;;;;7.60;4.57;;;;;;;;;;5080613;28;20073;-67
2021/07/24 14:24:40;;;;;;;9.82;4.97;;;;;;;;;;5086236;28;20111;-68
2021/07/24 14:27:06;;;;;;;8.35;4.70;;;;;;;;;;5086442;28;20020;-67
2021/07/24 14:29:32;;;;;;;7.43;4.28;;;;;;;;;;5080132;28;20035;-68
2021/07/24 14:31:58;;;;;;;7.90;4.95;;;;;;;;;;5082019;28;20028;-68
2021/07/24 14:34:25;;;;;;;7.60;4.00;;;;;;;;;;5080703;28;20024;-68
2021/07/24 14:36:51;;;;;;;7.65;4.50;;;;;;;;;;5086261;28;20042;-68
2021/07/24 14:39:17;;;;;;;7.88;4.25;;;;;;;;;;5079984;28;20446;-67
2021/07/24 14:41:43;;;;;;;9.60;5.25;;;;;;;;;;5082859;28;20024;-68
2021/07/24 14:44:10;;;;;;;7.28;4.70;;;;;;;;;;5080730;28;20028;-68
2021/07/24 14:46:36;;;;;;;8.35;4.68;;;;;;;;;;5080662;28;20027;-67